Terminal Aerodrome Forecast
Issued by NWS

Home | Current Version | Previous Version | Text Only | Print | Product List | Glossary On
Versions: 1 2 3 4 5 6 7 8 9 10 11 12 13 14 15 16 17 18 19 20 21
993
FTUS45 KFGZ 291732
TAFGCN
TAF
KGCN 291732Z 2918/3018 28008KT P6SM BKN015 BKN030
     FM291930 29008G17KT P6SM SCT020 BKN035
     FM300200 VRB03KT P6SM SCT035 PROB30 3013/3018 -SHRA OVC035=

USA.gov is the U.S. government's official web portal to all federal, state and local government web resources and services.